RJNW

Details ICAO RJNW (NTQ)
Name NOTO
Region Japan
Timezone Asia/Tokyo (UTC+9.0)
Plans Departing 9
Arriving 7
Stats Elevation 718 ft / 219 m (AMSL)
Location 37.293129° 136.961946°
Runways 1
Magnetic Variation 8.347° W
Sunrise 2017-12-16 22:01:25 UTC / 2017-12-17 07:01:25 Local
Sunset 2017-12-17 07:37:30 UTC / 2017-12-17 16:37:30 Local
Advertisement - Login to hide

Runways

ID Width Length Bearing (true) Bearing (mag) Surface Threshold Offset Overrun Length
07 148 ft / 45 m 6,556 ft / 1,998 m 66.69° 75.04° Asphalt 0 ft / 0 m 190 ft / 58 m
25 148 ft / 45 m 6,556 ft / 1,998 m 246.70° 255.05° Asphalt 0 ft / 0 m 195 ft / 59 m

Approach Navaids

Runway Type Ident Frequency Range Bearing (true) Bearing (mag) Slope Elevation
25 Localiser INT 108.95 MHz 18 nm / 33 km 246.84° 255.18° - 721 ft / 220 m (AMSL)
25 Glidescope INT 108.95 MHz 10 nm / 19 km 246.70° 255.04° 3.00° 721 ft / 220 m (AMSL)
25 DME INT 108.95 MHz 18 nm / 33 km - - - 721 ft / 220 m (AMSL)

Map

Weather


0- 5 10 15 20 25 30 35+ Temperature / ° C

Clouds and Precipitation
Forecast for 2017-12-17 00:00 UTC. Updated 2 hours ago

Ground ~20,000 ft ~40,000 ft Winds

METAR

RJNW 162300Z 33010G24KT 260V020 0400 R25/0650V1100U SHSN VV002 M01/M02 Q1017

TAF

Not found
Warning: Do not use this data for real-world aviation or navigation. No guarantee of current accuracy is given.